Picada Cafe, Brazil
Current Conditions -  °F | °C
As of 10:00 PM on Saturday 22 Nov 2014 (Local Time) from SBCO Reporting Station
Clear Clear  
Wind Chill: 72°   Ceiling: Unl
Heat Index: 72°   Visibility: 6mi
Dew Point: 57°   Wind: 8mph
Humidity: 60%   Direction: 300°WNW
Pressure: 29.88"   Gusts: NA
Location:  29.44°S, 51.14°W
Report Text: SBCO 230000Z 30007KT CAVOK 22/14 Q1012
Loading
Personal Weather Stations






























Interactive Weather Map New forecast layout! Learn more

10-Day Weather Forecast

Advertisements
Track Severe Weather on mobile